sensor_id;sensor_type;location;lat;lon;timestamp;P1;durP1;ratioP1;P2;durP2;ratioP2
2944;SDS011;1482;51.398;7.128;2023-01-24T00:00:56;18.73;;;11.73;;
2944;SDS011;1482;51.398;7.128;2023-01-24T00:03:21;16.57;;;11.27;;
2944;SDS011;1482;51.398;7.128;2023-01-24T00:05:48;18.87;;;11.40;;
2944;SDS011;1482;51.398;7.128;2023-01-24T00:08:15;16.30;;;10.17;;
2944;SDS011;1482;51.398;7.128;2023-01-24T00:10:44;21.97;;;10.60;;
2944;SDS011;1482;51.398;7.128;2023-01-24T00:13:09;15.83;;;9.47;;
2944;SDS011;1482;51.398;7.128;2023-01-24T00:15:37;14.57;;;10.33;;
2944;SDS011;1482;51.398;7.128;2023-01-24T00:18:03;22.33;;;12.40;;
2944;SDS011;1482;51.398;7.128;2023-01-24T00:20:28;16.33;;;10.80;;
2944;SDS011;1482;51.398;7.128;2023-01-24T00:22:54;15.80;;;10.80;;
2944;SDS011;1482;51.398;7.128;2023-01-24T00:25:20;12.37;;;9.60;;
2944;SDS011;1482;51.398;7.128;2023-01-24T00:27:45;14.43;;;9.70;;
2944;SDS011;1482;51.398;7.128;2023-01-24T00:30:11;19.23;;;10.60;;
2944;SDS011;1482;51.398;7.128;2023-01-24T00:32:37;15.27;;;10.23;;
2944;SDS011;1482;51.398;7.128;2023-01-24T00:35:02;13.67;;;10.40;;
2944;SDS011;1482;51.398;7.128;2023-01-24T00:37:28;16.40;;;9.53;;
2944;SDS011;1482;51.398;7.128;2023-01-24T00:39:54;14.30;;;10.20;;
2944;SDS011;1482;51.398;7.128;2023-01-24T00:42:19;15.30;;;10.40;;
2944;SDS011;1482;51.398;7.128;2023-01-24T00:44:45;16.80;;;9.43;;
2944;SDS011;1482;51.398;7.128;2023-01-24T00:47:11;14.07;;;9.70;;
2944;SDS011;1482;51.398;7.128;2023-01-24T00:49:36;14.97;;;9.07;;
2944;SDS011;1482;51.398;7.128;2023-01-24T00:52:02;16.40;;;10.50;;
2944;SDS011;1482;51.398;7.128;2023-01-24T00:54:27;10.80;;;9.10;;
2944;SDS011;1482;51.398;7.128;2023-01-24T00:56:53;11.40;;;8.40;;
2944;SDS011;1482;51.398;7.128;2023-01-24T00:59:18;14.00;;;10.90;;
2944;SDS011;1482;51.398;7.128;2023-01-24T01:01:44;11.60;;;8.57;;
2944;SDS011;1482;51.398;7.128;2023-01-24T01:04:09;15.60;;;9.87;;
2944;SDS011;1482;51.398;7.128;2023-01-24T01:06:35;14.30;;;9.23;;
2944;SDS011;1482;51.398;7.128;2023-01-24T01:09:01;15.90;;;9.40;;
2944;SDS011;1482;51.398;7.128;2023-01-24T01:11:27;13.03;;;8.70;;
2944;SDS011;1482;51.398;7.128;2023-01-24T01:13:55;11.03;;;8.30;;
2944;SDS011;1482;51.398;7.128;2023-01-24T01:16:21;11.13;;;8.43;;
2944;SDS011;1482;51.398;7.128;2023-01-24T01:18:48;9.30;;;7.17;;
2944;SDS011;1482;51.398;7.128;2023-01-24T01:21:16;13.00;;;9.10;;
2944;SDS011;1482;51.398;7.128;2023-01-24T01:23:43;14.03;;;8.80;;
2944;SDS011;1482;51.398;7.128;2023-01-24T01:26:13;12.70;;;8.73;;
2944;SDS011;1482;51.398;7.128;2023-01-24T01:28:44;15.00;;;9.13;;
2944;SDS011;1482;51.398;7.128;2023-01-24T01:31:10;11.97;;;8.20;;
2944;SDS011;1482;51.398;7.128;2023-01-24T01:33:36;12.70;;;7.33;;
2944;SDS011;1482;51.398;7.128;2023-01-24T01:36:02;9.33;;;7.07;;
2944;SDS011;1482;51.398;7.128;2023-01-24T01:38:27;9.57;;;6.90;;
2944;SDS011;1482;51.398;7.128;2023-01-24T01:40:53;10.90;;;6.57;;
2944;SDS011;1482;51.398;7.128;2023-01-24T01:43:21;11.70;;;7.53;;
2944;SDS011;1482;51.398;7.128;2023-01-24T01:45:49;10.37;;;6.60;;
2944;SDS011;1482;51.398;7.128;2023-01-24T01:48:24;9.50;;;6.87;;
2944;SDS011;1482;51.398;7.128;2023-01-24T01:59:05;13.60;;;9.00;;
2944;SDS011;1482;51.398;7.128;2023-01-24T02:01:34;9.83;;;7.47;;
2944;SDS011;1482;51.398;7.128;2023-01-24T02:04:03;12.33;;;7.80;;
2944;SDS011;1482;51.398;7.128;2023-01-24T02:06:54;10.03;;;7.83;;
2944;SDS011;1482;51.398;7.128;2023-01-24T02:09:26;7.17;;;6.47;;
2944;SDS011;1482;51.398;7.128;2023-01-24T02:11:56;13.67;;;7.60;;
2944;SDS011;1482;51.398;7.128;2023-01-24T02:14:26;8.33;;;6.10;;
2944;SDS011;1482;51.398;7.128;2023-01-24T02:17:11;10.47;;;6.47;;
2944;SDS011;1482;51.398;7.128;2023-01-24T02:22:54;10.10;;;7.20;;
2944;SDS011;1482;51.398;7.128;2023-01-24T02:25:30;8.77;;;6.53;;
2944;SDS011;1482;51.398;7.128;2023-01-24T02:28:01;9.80;;;7.07;;
2944;SDS011;1482;51.398;7.128;2023-01-24T02:30:29;10.60;;;7.20;;
2944;SDS011;1482;51.398;7.128;2023-01-24T02:32:55;9.30;;;6.50;;
2944;SDS011;1482;51.398;7.128;2023-01-24T02:35:28;7.20;;;6.50;;
2944;SDS011;1482;51.398;7.128;2023-01-24T02:37:59;9.20;;;6.93;;
2944;SDS011;1482;51.398;7.128;2023-01-24T02:40:28;15.33;;;7.40;;
2944;SDS011;1482;51.398;7.128;2023-01-24T02:42:54;9.50;;;7.63;;
2944;SDS011;1482;51.398;7.128;2023-01-24T02:45:25;9.67;;;6.40;;
2944;SDS011;1482;51.398;7.128;2023-01-24T02:47:53;9.80;;;7.60;;
2944;SDS011;1482;51.398;7.128;2023-01-24T02:50:21;7.53;;;6.13;;
2944;SDS011;1482;51.398;7.128;2023-01-24T02:52:48;8.17;;;6.97;;
2944;SDS011;1482;51.398;7.128;2023-01-24T02:55:33;8.73;;;7.17;;
2944;SDS011;1482;51.398;7.128;2023-01-24T02:58:19;7.97;;;5.93;;
2944;SDS011;1482;51.398;7.128;2023-01-24T03:00:44;10.60;;;7.47;;
2944;SDS011;1482;51.398;7.128;2023-01-24T03:03:10;13.37;;;7.67;;
2944;SDS011;1482;51.398;7.128;2023-01-24T03:05:35;9.60;;;6.53;;
2944;SDS011;1482;51.398;7.128;2023-01-24T03:08:05;10.73;;;8.10;;
2944;SDS011;1482;51.398;7.128;2023-01-24T03:10:32;9.03;;;7.07;;
2944;SDS011;1482;51.398;7.128;2023-01-24T03:12:58;9.10;;;6.97;;
2944;SDS011;1482;51.398;7.128;2023-01-24T03:15:42;8.23;;;7.40;;
2944;SDS011;1482;51.398;7.128;2023-01-24T03:18:26;8.97;;;6.67;;
2944;SDS011;1482;51.398;7.128;2023-01-24T03:21:10;11.27;;;7.67;;
2944;SDS011;1482;51.398;7.128;2023-01-24T03:23:54;11.20;;;7.47;;
2944;SDS011;1482;51.398;7.128;2023-01-24T03:26:38;9.40;;;6.80;;
2944;SDS011;1482;51.398;7.128;2023-01-24T03:29:22;9.70;;;7.20;;
2944;SDS011;1482;51.398;7.128;2023-01-24T03:32:07;8.77;;;6.77;;
2944;SDS011;1482;51.398;7.128;2023-01-24T03:34:51;9.10;;;7.23;;
2944;SDS011;1482;51.398;7.128;2023-01-24T03:37:17;8.37;;;6.30;;
2944;SDS011;1482;51.398;7.128;2023-01-24T03:40:14;8.63;;;6.87;;
2944;SDS011;1482;51.398;7.128;2023-01-24T03:42:40;10.00;;;6.83;;
2944;SDS011;1482;51.398;7.128;2023-01-24T03:45:17;8.20;;;6.80;;
2944;SDS011;1482;51.398;7.128;2023-01-24T03:47:45;6.73;;;5.97;;
2944;SDS011;1482;51.398;7.128;2023-01-24T03:50:22;9.57;;;6.70;;
2944;SDS011;1482;51.398;7.128;2023-01-24T03:53:07;9.73;;;7.37;;
2944;SDS011;1482;51.398;7.128;2023-01-24T03:55:33;15.53;;;7.50;;
2944;SDS011;1482;51.398;7.128;2023-01-24T03:57:59;8.97;;;8.03;;
2944;SDS011;1482;51.398;7.128;2023-01-24T04:00:25;7.93;;;6.73;;
2944;SDS011;1482;51.398;7.128;2023-01-24T04:02:51;9.03;;;5.90;;
2944;SDS011;1482;51.398;7.128;2023-01-24T04:05:17;9.10;;;6.80;;
2944;SDS011;1482;51.398;7.128;2023-01-24T04:07:45;8.83;;;6.57;;
2944;SDS011;1482;51.398;7.128;2023-01-24T04:10:11;12.50;;;8.07;;
2944;SDS011;1482;51.398;7.128;2023-01-24T04:12:36;11.93;;;7.60;;
2944;SDS011;1482;51.398;7.128;2023-01-24T04:15:02;8.43;;;7.10;;
2944;SDS011;1482;51.398;7.128;2023-01-24T04:17:28;7.13;;;6.37;;
2944;SDS011;1482;51.398;7.128;2023-01-24T04:19:53;9.03;;;6.87;;
2944;SDS011;1482;51.398;7.128;2023-01-24T04:22:19;8.90;;;7.50;;
2944;SDS011;1482;51.398;7.128;2023-01-24T04:24:45;11.23;;;7.40;;
2944;SDS011;1482;51.398;7.128;2023-01-24T04:27:10;12.17;;;8.43;;
2944;SDS011;1482;51.398;7.128;2023-01-24T04:29:36;10.63;;;7.60;;
2944;SDS011;1482;51.398;7.128;2023-01-24T04:32:02;10.97;;;7.87;;
2944;SDS011;1482;51.398;7.128;2023-01-24T04:34:28;11.53;;;7.70;;
2944;SDS011;1482;51.398;7.128;2023-01-24T04:36:53;10.53;;;7.77;;
2944;SDS011;1482;51.398;7.128;2023-01-24T04:39:19;9.70;;;6.67;;
2944;SDS011;1482;51.398;7.128;2023-01-24T04:41:44;10.93;;;6.83;;
2944;SDS011;1482;51.398;7.128;2023-01-24T04:44:10;11.90;;;9.20;;
2944;SDS011;1482;51.398;7.128;2023-01-24T04:46:35;8.77;;;6.63;;
2944;SDS011;1482;51.398;7.128;2023-01-24T04:49:01;12.43;;;7.93;;
2944;SDS011;1482;51.398;7.128;2023-01-24T04:51:27;13.93;;;9.57;;
2944;SDS011;1482;51.398;7.128;2023-01-24T04:53:52;10.80;;;7.77;;
2944;SDS011;1482;51.398;7.128;2023-01-24T04:56:18;11.90;;;8.00;;
2944;SDS011;1482;51.398;7.128;2023-01-24T04:58:43;11.53;;;8.27;;
2944;SDS011;1482;51.398;7.128;2023-01-24T05:01:09;10.37;;;7.73;;
2944;SDS011;1482;51.398;7.128;2023-01-24T05:03:35;13.40;;;9.07;;
2944;SDS011;1482;51.398;7.128;2023-01-24T05:06:00;11.70;;;8.00;;
2944;SDS011;1482;51.398;7.128;2023-01-24T05:08:26;15.83;;;8.70;;
2944;SDS011;1482;51.398;7.128;2023-01-24T05:10:52;12.93;;;8.60;;
2944;SDS011;1482;51.398;7.128;2023-01-24T05:13:17;11.27;;;8.73;;
2944;SDS011;1482;51.398;7.128;2023-01-24T05:15:47;15.60;;;10.57;;
2944;SDS011;1482;51.398;7.128;2023-01-24T05:18:16;12.40;;;8.40;;
2944;SDS011;1482;51.398;7.128;2023-01-24T05:20:42;16.97;;;9.30;;
2944;SDS011;1482;51.398;7.128;2023-01-24T05:23:08;17.33;;;10.77;;
2944;SDS011;1482;51.398;7.128;2023-01-24T05:25:34;18.17;;;11.30;;
2944;SDS011;1482;51.398;7.128;2023-01-24T05:28:00;13.70;;;9.33;;
2944;SDS011;1482;51.398;7.128;2023-01-24T05:30:25;17.27;;;10.50;;
2944;SDS011;1482;51.398;7.128;2023-01-24T05:32:54;10.87;;;8.73;;
2944;SDS011;1482;51.398;7.128;2023-01-24T05:35:21;15.70;;;9.37;;
2944;SDS011;1482;51.398;7.128;2023-01-24T05:37:46;17.40;;;9.20;;
2944;SDS011;1482;51.398;7.128;2023-01-24T05:40:12;14.43;;;9.63;;
2944;SDS011;1482;51.398;7.128;2023-01-24T05:42:39;16.37;;;9.77;;
2944;SDS011;1482;51.398;7.128;2023-01-24T05:45:07;15.10;;;9.53;;
2944;SDS011;1482;51.398;7.128;2023-01-24T05:47:33;12.93;;;9.47;;
2944;SDS011;1482;51.398;7.128;2023-01-24T05:49:59;15.57;;;9.20;;
2944;SDS011;1482;51.398;7.128;2023-01-24T05:52:24;13.47;;;9.27;;
2944;SDS011;1482;51.398;7.128;2023-01-24T05:54:50;12.60;;;8.37;;
2944;SDS011;1482;51.398;7.128;2023-01-24T05:57:16;11.77;;;9.97;;
2944;SDS011;1482;51.398;7.128;2023-01-24T05:59:42;12.17;;;9.00;;
2944;SDS011;1482;51.398;7.128;2023-01-24T06:02:08;16.63;;;9.37;;
2944;SDS011;1482;51.398;7.128;2023-01-24T06:04:34;15.33;;;9.90;;
2944;SDS011;1482;51.398;7.128;2023-01-24T06:06:59;14.73;;;9.90;;
2944;SDS011;1482;51.398;7.128;2023-01-24T06:09:25;16.03;;;9.50;;
2944;SDS011;1482;51.398;7.128;2023-01-24T06:11:51;11.90;;;8.80;;
2944;SDS011;1482;51.398;7.128;2023-01-24T06:14:16;15.40;;;9.77;;
2944;SDS011;1482;51.398;7.128;2023-01-24T06:16:43;11.37;;;8.70;;
2944;SDS011;1482;51.398;7.128;2023-01-24T06:19:10;13.60;;;9.37;;
2944;SDS011;1482;51.398;7.128;2023-01-24T06:21:43;15.17;;;9.77;;
2944;SDS011;1482;51.398;7.128;2023-01-24T06:24:17;11.83;;;8.23;;
2944;SDS011;1482;51.398;7.128;2023-01-24T06:26:48;14.47;;;9.80;;
2944;SDS011;1482;51.398;7.128;2023-01-24T06:29:17;12.27;;;9.17;;
2944;SDS011;1482;51.398;7.128;2023-01-24T06:34:53;13.07;;;8.90;;
2944;SDS011;1482;51.398;7.128;2023-01-24T06:40:11;14.30;;;10.43;;
2944;SDS011;1482;51.398;7.128;2023-01-24T06:42:39;13.33;;;9.67;;
2944;SDS011;1482;51.398;7.128;2023-01-24T06:45:05;14.87;;;10.03;;
2944;SDS011;1482;51.398;7.128;2023-01-24T06:47:31;13.60;;;9.27;;
2944;SDS011;1482;51.398;7.128;2023-01-24T06:49:57;12.30;;;9.40;;
2944;SDS011;1482;51.398;7.128;2023-01-24T06:52:23;12.73;;;9.00;;
2944;SDS011;1482;51.398;7.128;2023-01-24T06:54:49;15.23;;;10.40;;
2944;SDS011;1482;51.398;7.128;2023-01-24T06:57:14;12.53;;;9.13;;
2944;SDS011;1482;51.398;7.128;2023-01-24T06:59:40;16.27;;;10.93;;
2944;SDS011;1482;51.398;7.128;2023-01-24T07:02:05;14.20;;;9.70;;
2944;SDS011;1482;51.398;7.128;2023-01-24T07:04:33;11.40;;;8.23;;
2944;SDS011;1482;51.398;7.128;2023-01-24T07:07:00;15.57;;;10.43;;
2944;SDS011;1482;51.398;7.128;2023-01-24T07:09:25;13.50;;;8.80;;
2944;SDS011;1482;51.398;7.128;2023-01-24T07:11:51;15.47;;;10.90;;
2944;SDS011;1482;51.398;7.128;2023-01-24T07:14:20;14.40;;;10.90;;
2944;SDS011;1482;51.398;7.128;2023-01-24T07:16:45;17.00;;;11.50;;
2944;SDS011;1482;51.398;7.128;2023-01-24T07:19:15;14.17;;;9.97;;
2944;SDS011;1482;51.398;7.128;2023-01-24T07:21:42;14.13;;;10.43;;
2944;SDS011;1482;51.398;7.128;2023-01-24T07:24:12;14.53;;;10.07;;
2944;SDS011;1482;51.398;7.128;2023-01-24T07:26:40;15.00;;;9.20;;
2944;SDS011;1482;51.398;7.128;2023-01-24T07:29:06;12.53;;;10.03;;
2944;SDS011;1482;51.398;7.128;2023-01-24T07:31:32;15.87;;;10.00;;
2944;SDS011;1482;51.398;7.128;2023-01-24T07:33:57;12.80;;;9.63;;
2944;SDS011;1482;51.398;7.128;2023-01-24T07:36:23;14.87;;;9.87;;
2944;SDS011;1482;51.398;7.128;2023-01-24T07:38:52;14.27;;;9.93;;
2944;SDS011;1482;51.398;7.128;2023-01-24T07:41:21;16.53;;;10.03;;
2944;SDS011;1482;51.398;7.128;2023-01-24T07:43:46;14.77;;;11.23;;
2944;SDS011;1482;51.398;7.128;2023-01-24T07:46:12;14.50;;;9.70;;
2944;SDS011;1482;51.398;7.128;2023-01-24T07:48:38;14.97;;;10.00;;
2944;SDS011;1482;51.398;7.128;2023-01-24T07:51:04;13.27;;;9.93;;
2944;SDS011;1482;51.398;7.128;2023-01-24T07:53:30;10.57;;;7.20;;
2944;SDS011;1482;51.398;7.128;2023-01-24T07:55:58;13.67;;;9.43;;
2944;SDS011;1482;51.398;7.128;2023-01-24T07:58:24;15.53;;;8.67;;
2944;SDS011;1482;51.398;7.128;2023-01-24T08:00:50;11.77;;;8.93;;
2944;SDS011;1482;51.398;7.128;2023-01-24T08:03:16;14.07;;;10.20;;
2944;SDS011;1482;51.398;7.128;2023-01-24T08:05:42;13.07;;;8.93;;
2944;SDS011;1482;51.398;7.128;2023-01-24T08:08:08;12.17;;;8.80;;
2944;SDS011;1482;51.398;7.128;2023-01-24T08:10:33;12.80;;;9.63;;
2944;SDS011;1482;51.398;7.128;2023-01-24T08:13:00;12.90;;;9.00;;
2944;SDS011;1482;51.398;7.128;2023-01-24T08:15:25;14.27;;;10.17;;
2944;SDS011;1482;51.398;7.128;2023-01-24T08:17:51;12.50;;;9.63;;
2944;SDS011;1482;51.398;7.128;2023-01-24T08:20:16;11.93;;;8.47;;
2944;SDS011;1482;51.398;7.128;2023-01-24T08:22:42;13.50;;;9.23;;
2944;SDS011;1482;51.398;7.128;2023-01-24T08:25:07;11.03;;;8.23;;
2944;SDS011;1482;51.398;7.128;2023-01-24T08:27:33;9.73;;;7.83;;
2944;SDS011;1482;51.398;7.128;2023-01-24T08:29:59;15.20;;;8.67;;
2944;SDS011;1482;51.398;7.128;2023-01-24T08:32:25;12.07;;;7.80;;
2944;SDS011;1482;51.398;7.128;2023-01-24T08:34:51;13.57;;;9.80;;
2944;SDS011;1482;51.398;7.128;2023-01-24T08:37:16;10.43;;;8.30;;
2944;SDS011;1482;51.398;7.128;2023-01-24T08:39:42;9.90;;;7.70;;
2944;SDS011;1482;51.398;7.128;2023-01-24T08:42:08;11.70;;;9.40;;
2944;SDS011;1482;51.398;7.128;2023-01-24T08:44:34;12.07;;;9.00;;
2944;SDS011;1482;51.398;7.128;2023-01-24T08:46:59;11.40;;;8.80;;
2944;SDS011;1482;51.398;7.128;2023-01-24T08:49:25;10.67;;;8.33;;
2944;SDS011;1482;51.398;7.128;2023-01-24T08:51:50;11.10;;;8.40;;
2944;SDS011;1482;51.398;7.128;2023-01-24T08:54:23;14.20;;;7.50;;
2944;SDS011;1482;51.398;7.128;2023-01-24T08:56:50;12.47;;;8.30;;
2944;SDS011;1482;51.398;7.128;2023-01-24T08:59:15;14.77;;;9.33;;
2944;SDS011;1482;51.398;7.128;2023-01-24T09:01:41;10.23;;;6.90;;
2944;SDS011;1482;51.398;7.128;2023-01-24T09:04:07;11.07;;;8.97;;
2944;SDS011;1482;51.398;7.128;2023-01-24T09:06:33;11.30;;;8.57;;
2944;SDS011;1482;51.398;7.128;2023-01-24T09:08:59;11.10;;;8.33;;
2944;SDS011;1482;51.398;7.128;2023-01-24T09:11:24;10.67;;;8.10;;
2944;SDS011;1482;51.398;7.128;2023-01-24T09:13:50;9.17;;;7.20;;
2944;SDS011;1482;51.398;7.128;2023-01-24T09:16:16;12.27;;;8.77;;
2944;SDS011;1482;51.398;7.128;2023-01-24T09:18:41;12.10;;;8.33;;
2944;SDS011;1482;51.398;7.128;2023-01-24T09:21:07;14.93;;;9.97;;
2944;SDS011;1482;51.398;7.128;2023-01-24T09:23:32;11.00;;;8.67;;
2944;SDS011;1482;51.398;7.128;2023-01-24T09:25:58;11.30;;;7.77;;
2944;SDS011;1482;51.398;7.128;2023-01-24T09:28:24;10.20;;;8.50;;
2944;SDS011;1482;51.398;7.128;2023-01-24T09:30:49;12.43;;;8.87;;
2944;SDS011;1482;51.398;7.128;2023-01-24T09:33:16;14.30;;;9.97;;
2944;SDS011;1482;51.398;7.128;2023-01-24T09:35:50;13.43;;;8.73;;
2944;SDS011;1482;51.398;7.128;2023-01-24T09:38:19;16.43;;;10.00;;
2944;SDS011;1482;51.398;7.128;2023-01-24T09:40:54;15.47;;;10.60;;
2944;SDS011;1482;51.398;7.128;2023-01-24T09:48:52;11.93;;;9.23;;
2944;SDS011;1482;51.398;7.128;2023-01-24T09:51:25;10.67;;;9.23;;
2944;SDS011;1482;51.398;7.128;2023-01-24T09:53:55;12.10;;;8.87;;
2944;SDS011;1482;51.398;7.128;2023-01-24T09:56:24;11.70;;;8.70;;
2944;SDS011;1482;51.398;7.128;2023-01-24T09:59:09;10.73;;;8.17;;
2944;SDS011;1482;51.398;7.128;2023-01-24T10:01:40;9.87;;;7.77;;
2944;SDS011;1482;51.398;7.128;2023-01-24T10:04:23;12.30;;;8.73;;
2944;SDS011;1482;51.398;7.128;2023-01-24T10:07:20;11.53;;;8.70;;
2944;SDS011;1482;51.398;7.128;2023-01-24T10:09:54;12.17;;;9.67;;
2944;SDS011;1482;51.398;7.128;2023-01-24T10:12:30;11.80;;;8.20;;
2944;SDS011;1482;51.398;7.128;2023-01-24T10:18:15;13.03;;;10.60;;
2944;SDS011;1482;51.398;7.128;2023-01-24T10:21:13;13.30;;;10.03;;
2944;SDS011;1482;51.398;7.128;2023-01-24T10:23:43;11.60;;;8.90;;
2944;SDS011;1482;51.398;7.128;2023-01-24T10:26:21;11.50;;;8.43;;
2944;SDS011;1482;51.398;7.128;2023-01-24T10:28:51;15.40;;;9.90;;
2944;SDS011;1482;51.398;7.128;2023-01-24T10:31:30;10.00;;;8.00;;
2944;SDS011;1482;51.398;7.128;2023-01-24T10:36:57;11.17;;;9.30;;
2944;SDS011;1482;51.398;7.128;2023-01-24T10:39:30;11.47;;;9.67;;
2944;SDS011;1482;51.398;7.128;2023-01-24T10:41:55;11.90;;;8.90;;
2944;SDS011;1482;51.398;7.128;2023-01-24T10:44:25;14.10;;;8.70;;
2944;SDS011;1482;51.398;7.128;2023-01-24T10:46:57;17.00;;;11.37;;
2944;SDS011;1482;51.398;7.128;2023-01-24T10:49:37;20.87;;;11.23;;
2944;SDS011;1482;51.398;7.128;2023-01-24T10:52:13;12.90;;;10.97;;
2944;SDS011;1482;51.398;7.128;2023-01-24T10:54:48;13.37;;;10.00;;
2944;SDS011;1482;51.398;7.128;2023-01-24T11:02:38;14.50;;;9.83;;
2944;SDS011;1482;51.398;7.128;2023-01-24T11:05:05;13.93;;;10.07;;
2944;SDS011;1482;51.398;7.128;2023-01-24T11:07:36;13.77;;;11.40;;
2944;SDS011;1482;51.398;7.128;2023-01-24T11:10:08;16.40;;;11.57;;
2944;SDS011;1482;51.398;7.128;2023-01-24T11:12:49;12.83;;;9.90;;
2944;SDS011;1482;51.398;7.128;2023-01-24T11:15:18;14.63;;;10.37;;
2944;SDS011;1482;51.398;7.128;2023-01-24T11:17:46;12.33;;;10.03;;
2944;SDS011;1482;51.398;7.128;2023-01-24T11:22:55;13.33;;;10.30;;
2944;SDS011;1482;51.398;7.128;2023-01-24T11:25:53;13.03;;;9.80;;
2944;SDS011;1482;51.398;7.128;2023-01-24T11:28:24;14.03;;;9.90;;
2944;SDS011;1482;51.398;7.128;2023-01-24T11:30:51;11.93;;;9.60;;
2944;SDS011;1482;51.398;7.128;2023-01-24T11:36:31;12.57;;;8.90;;
2944;SDS011;1482;51.398;7.128;2023-01-24T11:39:21;13.50;;;10.63;;
2944;SDS011;1482;51.398;7.128;2023-01-24T11:48:40;13.30;;;10.50;;
2944;SDS011;1482;51.398;7.128;2023-01-24T11:51:20;13.07;;;9.77;;
2944;SDS011;1482;51.398;7.128;2023-01-24T11:54:13;12.40;;;10.00;;
2944;SDS011;1482;51.398;7.128;2023-01-24T12:10:19;15.73;;;12.07;;
2944;SDS011;1482;51.398;7.128;2023-01-24T12:16:18;11.00;;;9.63;;
2944;SDS011;1482;51.398;7.128;2023-01-24T12:21:32;11.70;;;9.60;;
2944;SDS011;1482;51.398;7.128;2023-01-24T12:24:02;15.60;;;11.43;;
2944;SDS011;1482;51.398;7.128;2023-01-24T12:26:39;13.30;;;10.63;;
2944;SDS011;1482;51.398;7.128;2023-01-24T12:29:21;17.90;;;11.07;;
2944;SDS011;1482;51.398;7.128;2023-01-24T12:34:37;11.57;;;9.10;;
2944;SDS011;1482;51.398;7.128;2023-01-24T12:45:34;11.80;;;9.40;;
2944;SDS011;1482;51.398;7.128;2023-01-24T12:53:47;13.80;;;9.97;;
2944;SDS011;1482;51.398;7.128;2023-01-24T12:56:23;11.90;;;9.60;;
2944;SDS011;1482;51.398;7.128;2023-01-24T12:58:54;10.33;;;9.00;;
2944;SDS011;1482;51.398;7.128;2023-01-24T13:12:21;11.27;;;9.23;;
2944;SDS011;1482;51.398;7.128;2023-01-24T13:14:50;11.67;;;10.47;;
2944;SDS011;1482;51.398;7.128;2023-01-24T13:28:38;11.70;;;8.73;;
2944;SDS011;1482;51.398;7.128;2023-01-24T13:31:14;10.80;;;8.80;;
2944;SDS011;1482;51.398;7.128;2023-01-24T13:33:49;12.00;;;9.50;;
2944;SDS011;1482;51.398;7.128;2023-01-24T13:36:19;20.87;;;12.57;;
2944;SDS011;1482;51.398;7.128;2023-01-24T13:38:47;13.27;;;10.10;;
2944;SDS011;1482;51.398;7.128;2023-01-24T13:49:19;14.30;;;10.47;;
2944;SDS011;1482;51.398;7.128;2023-01-24T13:52:02;11.90;;;10.20;;
2944;SDS011;1482;51.398;7.128;2023-01-24T13:54:48;9.73;;;8.40;;
2944;SDS011;1482;51.398;7.128;2023-01-24T14:21:47;12.63;;;10.17;;
2944;SDS011;1482;51.398;7.128;2023-01-24T14:24:22;11.77;;;10.03;;
2944;SDS011;1482;51.398;7.128;2023-01-24T14:26:52;13.20;;;9.47;;
2944;SDS011;1482;51.398;7.128;2023-01-24T14:29:20;11.63;;;10.20;;
2944;SDS011;1482;51.398;7.128;2023-01-24T14:31:50;11.73;;;9.83;;
2944;SDS011;1482;51.398;7.128;2023-01-24T14:34:33;11.07;;;9.57;;
2944;SDS011;1482;51.398;7.128;2023-01-24T14:37:09;12.53;;;9.20;;
2944;SDS011;1482;51.398;7.128;2023-01-24T14:39:36;11.73;;;10.03;;
2944;SDS011;1482;51.398;7.128;2023-01-24T14:42:02;11.00;;;9.63;;
2944;SDS011;1482;51.398;7.128;2023-01-24T14:44:31;17.37;;;12.17;;
2944;SDS011;1482;51.398;7.128;2023-01-24T14:54:47;10.77;;;9.40;;
2944;SDS011;1482;51.398;7.128;2023-01-24T14:57:19;13.97;;;9.80;;
2944;SDS011;1482;51.398;7.128;2023-01-24T14:59:46;13.80;;;10.93;;
2944;SDS011;1482;51.398;7.128;2023-01-24T15:02:22;12.37;;;10.10;;
2944;SDS011;1482;51.398;7.128;2023-01-24T15:04:48;12.80;;;10.10;;
2944;SDS011;1482;51.398;7.128;2023-01-24T15:07:15;9.73;;;8.80;;
2944;SDS011;1482;51.398;7.128;2023-01-24T15:09:42;11.17;;;9.50;;
2944;SDS011;1482;51.398;7.128;2023-01-24T15:14:59;10.90;;;7.80;;
2944;SDS011;1482;51.398;7.128;2023-01-24T15:17:28;13.13;;;9.77;;
2944;SDS011;1482;51.398;7.128;2023-01-24T15:19:57;13.40;;;11.30;;
2944;SDS011;1482;51.398;7.128;2023-01-24T15:22:38;10.63;;;9.20;;
2944;SDS011;1482;51.398;7.128;2023-01-24T15:25:15;16.33;;;9.70;;
2944;SDS011;1482;51.398;7.128;2023-01-24T15:27:46;10.90;;;9.00;;
2944;SDS011;1482;51.398;7.128;2023-01-24T15:30:16;13.10;;;9.67;;
2944;SDS011;1482;51.398;7.128;2023-01-24T15:32:48;14.90;;;10.43;;
2944;SDS011;1482;51.398;7.128;2023-01-24T15:40:26;11.40;;;9.40;;
2944;SDS011;1482;51.398;7.128;2023-01-24T15:42:52;10.40;;;8.43;;
2944;SDS011;1482;51.398;7.128;2023-01-24T15:45:37;11.80;;;9.20;;
2944;SDS011;1482;51.398;7.128;2023-01-24T15:48:11;10.53;;;8.60;;
2944;SDS011;1482;51.398;7.128;2023-01-24T15:50:37;11.97;;;10.27;;
2944;SDS011;1482;51.398;7.128;2023-01-24T15:53:34;11.30;;;9.10;;
2944;SDS011;1482;51.398;7.128;2023-01-24T15:56:02;12.70;;;9.00;;
2944;SDS011;1482;51.398;7.128;2023-01-24T15:58:30;12.70;;;10.40;;
2944;SDS011;1482;51.398;7.128;2023-01-24T16:00:58;13.43;;;10.50;;
2944;SDS011;1482;51.398;7.128;2023-01-24T16:03:24;11.67;;;8.90;;
2944;SDS011;1482;51.398;7.128;2023-01-24T16:05:50;10.17;;;8.90;;
2944;SDS011;1482;51.398;7.128;2023-01-24T16:08:16;13.50;;;10.97;;
2944;SDS011;1482;51.398;7.128;2023-01-24T16:10:43;15.50;;;12.00;;
2944;SDS011;1482;51.398;7.128;2023-01-24T16:15:57;15.20;;;10.03;;
2944;SDS011;1482;51.398;7.128;2023-01-24T16:18:24;17.30;;;11.77;;
2944;SDS011;1482;51.398;7.128;2023-01-24T16:20:50;17.87;;;13.00;;
2944;SDS011;1482;51.398;7.128;2023-01-24T16:23:17;11.73;;;10.37;;
2944;SDS011;1482;51.398;7.128;2023-01-24T16:25:42;15.33;;;11.67;;
2944;SDS011;1482;51.398;7.128;2023-01-24T16:28:17;13.43;;;11.33;;
2944;SDS011;1482;51.398;7.128;2023-01-24T16:30:45;15.57;;;11.73;;
2944;SDS011;1482;51.398;7.128;2023-01-24T16:33:15;14.97;;;11.63;;
2944;SDS011;1482;51.398;7.128;2023-01-24T16:35:41;13.00;;;10.13;;
2944;SDS011;1482;51.398;7.128;2023-01-24T16:38:09;12.03;;;10.63;;
2944;SDS011;1482;51.398;7.128;2023-01-24T16:40:35;12.10;;;10.80;;
2944;SDS011;1482;51.398;7.128;2023-01-24T16:43:02;17.63;;;11.87;;
2944;SDS011;1482;51.398;7.128;2023-01-24T16:45:29;14.17;;;12.50;;
2944;SDS011;1482;51.398;7.128;2023-01-24T16:47:54;13.50;;;11.30;;
2944;SDS011;1482;51.398;7.128;2023-01-24T16:50:21;14.20;;;12.00;;
2944;SDS011;1482;51.398;7.128;2023-01-24T16:52:46;13.10;;;10.73;;
2944;SDS011;1482;51.398;7.128;2023-01-24T16:55:13;15.03;;;11.83;;
2944;SDS011;1482;51.398;7.128;2023-01-24T16:57:39;17.23;;;12.60;;
2944;SDS011;1482;51.398;7.128;2023-01-24T17:00:05;15.20;;;12.50;;
2944;SDS011;1482;51.398;7.128;2023-01-24T17:02:40;15.00;;;11.90;;
2944;SDS011;1482;51.398;7.128;2023-01-24T17:05:07;18.30;;;11.77;;
2944;SDS011;1482;51.398;7.128;2023-01-24T17:07:33;21.50;;;14.30;;
2944;SDS011;1482;51.398;7.128;2023-01-24T17:09:59;14.03;;;12.57;;
2944;SDS011;1482;51.398;7.128;2023-01-24T17:12:27;16.10;;;13.27;;
2944;SDS011;1482;51.398;7.128;2023-01-24T17:14:53;18.27;;;13.90;;
2944;SDS011;1482;51.398;7.128;2023-01-24T17:17:19;16.93;;;12.87;;
2944;SDS011;1482;51.398;7.128;2023-01-24T17:19:44;14.40;;;12.10;;
2944;SDS011;1482;51.398;7.128;2023-01-24T17:22:10;16.70;;;13.80;;
2944;SDS011;1482;51.398;7.128;2023-01-24T17:24:36;15.83;;;12.30;;
2944;SDS011;1482;51.398;7.128;2023-01-24T17:27:02;17.10;;;13.60;;
2944;SDS011;1482;51.398;7.128;2023-01-24T17:29:27;15.10;;;12.23;;
2944;SDS011;1482;51.398;7.128;2023-01-24T17:31:53;15.87;;;12.60;;
2944;SDS011;1482;51.398;7.128;2023-01-24T17:34:20;18.17;;;12.80;;
2944;SDS011;1482;51.398;7.128;2023-01-24T17:36:45;16.17;;;13.10;;
2944;SDS011;1482;51.398;7.128;2023-01-24T17:39:11;17.23;;;14.23;;
2944;SDS011;1482;51.398;7.128;2023-01-24T17:41:37;18.07;;;13.93;;
2944;SDS011;1482;51.398;7.128;2023-01-24T17:44:03;19.77;;;13.67;;
2944;SDS011;1482;51.398;7.128;2023-01-24T17:46:28;18.53;;;14.43;;